Pagrindinis puslapis
METAR-TAF:

METAR-TAF

Oro uostai :

Choremabadas, Iranas

platuma: 33-26-11N, ilguma: 048-17-09E, Aukštis: 1155 m

Dabartinis oras

Ataskaita buvo paskelbta 9 valandos ir 31 minutes, ne 13:00 UTC
Vėjas 10 kt iš Vakarų/Šiaurės Vakarų
Temperatūra 32°C
Drėgmė 15%
Slėgis 1017 hPa
Matomumas 10 km arba daugiau
Mažai debesys ne aukštis 4000 ft, aukštai iškilę kamuoliniai debesys.
Su prošvaistėmis ne aukštis 19000 ft

METAR: OICK 211300Z 30010KT 9999 FEW040TCU BKN190 32/02 Q1017

Laikas: 03:01 (22:31 UTC)


TAF: trūkstamas

Orai ataskaitas ir orų prognozės (METAR, TAF).

turimą stotys yra geltonos ir raudonos taškus žemėlapyje.

Perkelti pele per norėdami pamatyti stoties vardą.

Tada spustelėkite, norėdami matyti oro stebėjimo ir prognozės.

Norėdami pakeisti žemėlapį: spustelėkite ant žalios mygtukų su juodo kryžiaus žemyn,; žalią mygtuką su brūkšneliu, jei norite nutolinti; arba žalių rodyklių gretimoms žemėlapius.


METAR-TAF: